Time;durP1;ratioP1;P1;durP2;ratioP2;P2;SDS_P1;SDS_P2;PMS_P1;PMS_P2;Temp;Humidity;BMP_temperature;BMP_pressure;BME280_temperature;BME280_humidity;BME280_pressure;Samples;Min_cycle;Max_cycle;Signal;HPM_P1;HPM_P2
2023/01/30 00:00:29;;;;;;;11.27;8.53;;;;;;;;;;5044721;28;20258;-53
2023/01/30 00:02:57;;;;;;;12.90;8.07;;;;;;;;;;5042770;28;20246;-53
2023/01/30 00:05:23;;;;;;;11.80;8.77;;;;;;;;;;5043667;28;20245;-53
2023/01/30 00:07:50;;;;;;;9.50;8.00;;;;;;;;;;5044287;28;20319;-52
2023/01/30 00:10:16;;;;;;;12.03;9.10;;;;;;;;;;5039207;28;20748;-53
2023/01/30 00:12:43;;;;;;;11.90;9.50;;;;;;;;;;5038619;28;20632;-53
2023/01/30 00:15:09;;;;;;;14.00;9.67;;;;;;;;;;5043319;28;20239;-52
2023/01/30 00:17:36;;;;;;;13.87;9.80;;;;;;;;;;5040748;28;20234;-53
2023/01/30 00:20:04;;;;;;;10.57;8.23;;;;;;;;;;5043493;28;20240;-53
2023/01/30 00:22:30;;;;;;;11.17;8.90;;;;;;;;;;5049302;28;20774;-53
2023/01/30 00:24:57;;;;;;;14.00;9.67;;;;;;;;;;5050245;28;20243;-52
2023/01/30 00:27:23;;;;;;;12.07;8.97;;;;;;;;;;5047005;28;20305;-58
2023/01/30 00:29:49;;;;;;;12.13;9.40;;;;;;;;;;5044056;28;20251;-53
2023/01/30 00:32:16;;;;;;;13.30;9.37;;;;;;;;;;5043981;28;20323;-53
2023/01/30 00:34:42;;;;;;;11.20;8.60;;;;;;;;;;5042205;28;20321;-53
2023/01/30 00:37:10;;;;;;;14.20;9.50;;;;;;;;;;5041401;28;20330;-59
2023/01/30 00:39:36;;;;;;;13.17;10.30;;;;;;;;;;5043316;28;20288;-54
2023/01/30 00:47:31;;;;;;;11.37;8.57;;;;;;;;;;5042153;28;20304;-53
2023/01/30 00:49:57;;;;;;;14.87;10.10;;;;;;;;;;5042572;28;20243;-53
2023/01/30 00:52:25;;;;;;;14.03;10.13;;;;;;;;;;5037237;28;20321;-54
2023/01/30 00:54:51;;;;;;;12.47;10.07;;;;;;;;;;5043061;28;20242;-53
2023/01/30 00:57:18;;;;;;;12.10;8.80;;;;;;;;;;5042947;28;20236;-55
2023/01/30 00:59:44;;;;;;;12.03;8.83;;;;;;;;;;5041200;28;20236;-52
2023/01/30 01:02:10;;;;;;;11.93;9.87;;;;;;;;;;5045940;28;20285;-53
2023/01/30 01:04:42;;;;;;;13.10;10.03;;;;;;;;;;5042947;28;20243;-53
2023/01/30 01:07:08;;;;;;;12.87;9.57;;;;;;;;;;5041151;28;20247;-53
2023/01/30 01:09:36;;;;;;;15.63;11.33;;;;;;;;;;5033306;28;20318;-53
2023/01/30 01:12:02;;;;;;;11.60;10.27;;;;;;;;;;5038465;28;20251;-53
2023/01/30 01:14:29;;;;;;;15.47;9.47;;;;;;;;;;5035114;28;20233;-52
2023/01/30 01:16:55;;;;;;;14.23;10.40;;;;;;;;;;5046294;28;20238;-54
2023/01/30 01:19:22;;;;;;;13.37;10.87;;;;;;;;;;5038956;28;20262;-52
2023/01/30 01:21:48;;;;;;;16.10;10.27;;;;;;;;;;5042420;28;20737;-52
2023/01/30 01:24:15;;;;;;;13.30;10.17;;;;;;;;;;5042502;28;20242;-55
2023/01/30 01:26:43;;;;;;;11.43;9.33;;;;;;;;;;5043957;28;20235;-53
2023/01/30 01:29:11;;;;;;;13.70;10.90;;;;;;;;;;5041119;28;20297;-54
2023/01/30 01:31:37;;;;;;;13.50;10.57;;;;;;;;;;5036617;28;20242;-53
2023/01/30 01:34:03;;;;;;;16.97;11.23;;;;;;;;;;5040731;28;20228;-54
2023/01/30 01:36:30;;;;;;;13.20;10.07;;;;;;;;;;5036458;28;20325;-53
2023/01/30 01:38:57;;;;;;;12.70;9.97;;;;;;;;;;5043070;28;20245;-53
2023/01/30 01:41:23;;;;;;;13.47;10.90;;;;;;;;;;5040072;28;20919;-53
2023/01/30 01:44:01;;;;;;;15.07;10.63;;;;;;;;;;5036868;28;20239;-54
2023/01/30 01:46:29;;;;;;;15.43;10.40;;;;;;;;;;5041621;28;20231;-56
2023/01/30 01:48:57;;;;;;;14.10;10.80;;;;;;;;;;5035863;28;20230;-53
2023/01/30 01:51:27;;;;;;;14.67;10.47;;;;;;;;;;5039877;28;20665;-53
2023/01/30 01:53:56;;;;;;;14.30;11.30;;;;;;;;;;5040324;28;20639;-53
2023/01/30 01:56:22;;;;;;;13.07;10.03;;;;;;;;;;5044598;28;20237;-54
2023/01/30 01:58:52;;;;;;;17.80;10.30;;;;;;;;;;5038946;28;20985;-52
2023/01/30 02:01:20;;;;;;;16.03;9.63;;;;;;;;;;5033966;28;20246;-53
2023/01/30 02:03:50;;;;;;;15.00;11.67;;;;;;;;;;5042074;28;20245;-53
2023/01/30 02:06:18;;;;;;;17.37;12.20;;;;;;;;;;5036178;28;20245;-54
2023/01/30 02:08:46;;;;;;;13.90;11.20;;;;;;;;;;5037124;28;20696;-53
2023/01/30 02:11:15;;;;;;;16.03;12.97;;;;;;;;;;5042792;28;20235;-53
2023/01/30 02:13:41;;;;;;;15.93;11.87;;;;;;;;;;5027304;28;20239;-52
2023/01/30 02:16:08;;;;;;;16.73;12.73;;;;;;;;;;5017369;28;20860;-53
2023/01/30 02:18:39;;;;;;;18.13;13.20;;;;;;;;;;5025779;28;20733;-53
2023/01/30 02:21:35;;;;;;;17.97;13.23;;;;;;;;;;5015211;28;21679;-53
2023/01/30 02:24:10;;;;;;;17.00;13.40;;;;;;;;;;4952723;28;20240;-54
2023/01/30 02:26:53;;;;;;;17.63;14.13;;;;;;;;;;5018601;28;20231;-53
2023/01/30 02:29:37;;;;;;;20.57;13.27;;;;;;;;;;5015823;28;20330;-55
2023/01/30 02:32:08;;;;;;;16.93;12.33;;;;;;;;;;5017458;28;20241;-54
2023/01/30 02:34:42;;;;;;;20.37;13.50;;;;;;;;;;5017264;28;20225;-53
2023/01/30 02:37:11;;;;;;;17.10;12.80;;;;;;;;;;5022952;28;21030;-53
2023/01/30 02:39:43;;;;;;;19.13;13.73;;;;;;;;;;5025304;28;20794;-53
2023/01/30 02:42:14;;;;;;;17.37;13.47;;;;;;;;;;5020363;28;20248;-55
2023/01/30 02:44:44;;;;;;;18.60;12.70;;;;;;;;;;5048630;28;20254;-53
2023/01/30 02:47:15;;;;;;;18.37;14.43;;;;;;;;;;5043653;28;20249;-54
2023/01/30 02:49:44;;;;;;;17.83;12.80;;;;;;;;;;5048162;28;20245;-54
2023/01/30 02:52:12;;;;;;;20.33;14.07;;;;;;;;;;5045672;28;20782;-54
2023/01/30 02:54:38;;;;;;;18.77;13.43;;;;;;;;;;5047604;28;20315;-53
2023/01/30 02:57:16;;;;;;;20.50;13.00;;;;;;;;;;5045326;28;20252;-53
2023/01/30 02:59:45;;;;;;;20.33;13.57;;;;;;;;;;5046793;28;20235;-53
2023/01/30 03:02:34;;;;;;;19.10;14.43;;;;;;;;;;5045167;28;20247;-53
2023/01/30 03:05:08;;;;;;;19.07;13.97;;;;;;;;;;5044081;28;21386;-53
2023/01/30 03:07:37;;;;;;;19.13;13.63;;;;;;;;;;5044225;28;20661;-54
2023/01/30 03:10:07;;;;;;;18.70;14.17;;;;;;;;;;5048355;28;20238;-52
2023/01/30 03:12:40;;;;;;;19.23;14.30;;;;;;;;;;5042558;28;20242;-53
2023/01/30 03:15:11;;;;;;;18.07;13.63;;;;;;;;;;5035522;28;20242;-54
2023/01/30 03:17:40;;;;;;;20.33;13.77;;;;;;;;;;5038356;28;20243;-54
2023/01/30 03:20:07;;;;;;;19.63;12.23;;;;;;;;;;5032289;28;20249;-53
2023/01/30 03:22:34;;;;;;;17.23;13.37;;;;;;;;;;5038609;28;20262;-52
2023/01/30 03:25:00;;;;;;;19.50;12.83;;;;;;;;;;5039317;28;20247;-54
2023/01/30 03:27:27;;;;;;;16.80;12.77;;;;;;;;;;5044296;28;20236;-53
2023/01/30 03:29:53;;;;;;;22.30;13.57;;;;;;;;;;5043520;28;20239;-52
2023/01/30 03:32:20;;;;;;;15.43;12.87;;;;;;;;;;5038727;28;20299;-54
2023/01/30 03:34:48;;;;;;;14.77;10.97;;;;;;;;;;5022310;28;20238;-54
2023/01/30 03:37:14;;;;;;;17.20;11.60;;;;;;;;;;5024272;28;20239;-53
2023/01/30 03:39:41;;;;;;;18.67;12.83;;;;;;;;;;5017953;28;20243;-53
2023/01/30 03:42:08;;;;;;;15.13;11.53;;;;;;;;;;5028446;28;20234;-53
2023/01/30 03:44:35;;;;;;;14.73;11.97;;;;;;;;;;5017958;28;20314;-53
2023/01/30 03:47:02;;;;;;;15.70;11.50;;;;;;;;;;5022341;28;20355;-54
2023/01/30 03:49:38;;;;;;;14.10;11.30;;;;;;;;;;5022721;28;20240;-52
2023/01/30 03:52:06;;;;;;;16.67;10.93;;;;;;;;;;5028397;28;20249;-53
2023/01/30 03:54:33;;;;;;;17.97;13.43;;;;;;;;;;5038894;28;20251;-53
2023/01/30 03:56:59;;;;;;;14.83;11.30;;;;;;;;;;5047085;28;20281;-52
2023/01/30 03:59:26;;;;;;;16.77;12.83;;;;;;;;;;5038957;28;20235;-52
2023/01/30 04:01:53;;;;;;;17.77;12.30;;;;;;;;;;5041650;28;20336;-52
2023/01/30 04:04:19;;;;;;;17.07;12.60;;;;;;;;;;5042787;28;20300;-54
2023/01/30 04:06:46;;;;;;;16.00;12.27;;;;;;;;;;5042517;28;20261;-54
2023/01/30 04:09:14;;;;;;;13.33;11.80;;;;;;;;;;5040081;28;20241;-53
2023/01/30 04:11:40;;;;;;;17.60;12.23;;;;;;;;;;5042994;28;20235;-54
2023/01/30 04:14:07;;;;;;;17.30;11.93;;;;;;;;;;5043041;28;20709;-52
2023/01/30 04:16:34;;;;;;;14.93;12.07;;;;;;;;;;5050279;28;20241;-53
2023/01/30 04:19:00;;;;;;;17.37;12.33;;;;;;;;;;5041146;28;20775;-53
2023/01/30 04:21:27;;;;;;;14.63;11.40;;;;;;;;;;5041699;28;20235;-53
2023/01/30 04:23:53;;;;;;;17.83;11.73;;;;;;;;;;5036127;28;20239;-53
2023/01/30 04:26:21;;;;;;;16.43;11.37;;;;;;;;;;5042679;28;20624;-52
2023/01/30 04:28:48;;;;;;;17.37;10.93;;;;;;;;;;5039807;28;20440;-53
2023/01/30 04:31:15;;;;;;;14.40;10.87;;;;;;;;;;5039223;28;20239;-53
2023/01/30 04:33:41;;;;;;;17.70;10.77;;;;;;;;;;5041947;28;20338;-54
2023/01/30 04:36:08;;;;;;;18.37;11.60;;;;;;;;;;5045776;28;20234;-52
2023/01/30 04:38:35;;;;;;;18.57;12.60;;;;;;;;;;5043097;28;20258;-54
2023/01/30 04:41:02;;;;;;;15.40;11.87;;;;;;;;;;5044507;28;20650;-53
2023/01/30 04:43:30;;;;;;;16.17;10.33;;;;;;;;;;5043881;28;20238;-53
2023/01/30 04:45:57;;;;;;;16.20;11.83;;;;;;;;;;5043507;28;20712;-53
2023/01/30 04:48:24;;;;;;;16.90;12.07;;;;;;;;;;5043406;28;20596;-52
2023/01/30 04:50:52;;;;;;;14.20;11.53;;;;;;;;;;5046154;28;20653;-53
2023/01/30 04:53:19;;;;;;;15.93;11.60;;;;;;;;;;5041379;28;20795;-53
2023/01/30 04:55:45;;;;;;;16.17;11.70;;;;;;;;;;5045273;28;20222;-53
2023/01/30 04:58:12;;;;;;;17.00;12.60;;;;;;;;;;5041934;28;20239;-54
2023/01/30 05:00:40;;;;;;;14.63;11.67;;;;;;;;;;5044549;28;20227;-53
2023/01/30 05:03:07;;;;;;;18.30;12.70;;;;;;;;;;5029469;28;20335;-54
2023/01/30 05:05:34;;;;;;;20.73;12.90;;;;;;;;;;5043090;28;20230;-53
2023/01/30 05:08:00;;;;;;;18.43;12.47;;;;;;;;;;5039628;28;20285;-53
2023/01/30 05:10:27;;;;;;;19.37;13.67;;;;;;;;;;5045808;28;20678;-56
2023/01/30 05:12:53;;;;;;;19.87;13.83;;;;;;;;;;5044487;28;20420;-55
2023/01/30 05:15:20;;;;;;;19.03;13.17;;;;;;;;;;5042285;28;20346;-54
2023/01/30 05:17:48;;;;;;;17.33;13.13;;;;;;;;;;5039487;28;20238;-54
2023/01/30 05:20:15;;;;;;;19.90;13.93;;;;;;;;;;5039449;28;20801;-55
2023/01/30 05:22:41;;;;;;;20.60;13.70;;;;;;;;;;5044403;28;21119;-54
2023/01/30 05:25:08;;;;;;;19.93;13.93;;;;;;;;;;5040659;28;20313;-54
2023/01/30 05:27:35;;;;;;;20.60;12.73;;;;;;;;;;5043384;28;20230;-57
2023/01/30 05:30:01;;;;;;;24.03;15.23;;;;;;;;;;5042956;28;20281;-56
2023/01/30 05:32:29;;;;;;;21.70;16.17;;;;;;;;;;5035202;28;20277;-55
2023/01/30 05:34:57;;;;;;;25.33;15.27;;;;;;;;;;5040268;28;20227;-54
2023/01/30 05:37:24;;;;;;;21.67;14.73;;;;;;;;;;5039423;28;20227;-55
2023/01/30 05:39:50;;;;;;;21.27;13.93;;;;;;;;;;5042988;28;20243;-55
2023/01/30 05:42:17;;;;;;;22.43;16.63;;;;;;;;;;5047620;28;20707;-55
2023/01/30 05:44:43;;;;;;;26.80;16.20;;;;;;;;;;5045120;28;20232;-54
2023/01/30 05:47:10;;;;;;;22.80;16.47;;;;;;;;;;5045855;28;20293;-56
2023/01/30 05:49:37;;;;;;;23.83;15.73;;;;;;;;;;5043952;28;20235;-55
2023/01/30 05:52:05;;;;;;;22.00;16.23;;;;;;;;;;5037280;28;20255;-54
2023/01/30 05:54:31;;;;;;;22.17;16.43;;;;;;;;;;5040268;28;20978;-54
2023/01/30 05:56:58;;;;;;;25.17;17.97;;;;;;;;;;5051288;28;20324;-53
2023/01/30 05:59:24;;;;;;;29.03;17.37;;;;;;;;;;5038624;28;20752;-52
2023/01/30 06:01:51;;;;;;;24.63;17.50;;;;;;;;;;5040627;28;20231;-54
2023/01/30 06:04:18;;;;;;;24.50;17.13;;;;;;;;;;5038130;28;20610;-53
2023/01/30 06:06:44;;;;;;;26.70;18.03;;;;;;;;;;5043470;28;20596;-53
2023/01/30 06:09:12;;;;;;;26.67;17.77;;;;;;;;;;5044544;28;20322;-53
2023/01/30 06:11:39;;;;;;;20.70;16.03;;;;;;;;;;5044251;28;20289;-54
2023/01/30 06:14:05;;;;;;;27.70;16.27;;;;;;;;;;5047680;28;20763;-55
2023/01/30 06:16:32;;;;;;;23.63;15.70;;;;;;;;;;5046330;28;20226;-55
2023/01/30 06:18:58;;;;;;;22.70;15.67;;;;;;;;;;5046030;28;20322;-54
2023/01/30 06:21:25;;;;;;;23.90;17.03;;;;;;;;;;5044940;28;20325;-54
2023/01/30 06:23:51;;;;;;;20.57;15.47;;;;;;;;;;5047585;28;20231;-54
2023/01/30 06:26:19;;;;;;;24.63;16.27;;;;;;;;;;5045365;28;20227;-54
2023/01/30 06:28:47;;;;;;;23.20;15.90;;;;;;;;;;5047891;28;20313;-55
2023/01/30 06:31:13;;;;;;;24.60;16.80;;;;;;;;;;5042272;28;20242;-54
2023/01/30 06:33:40;;;;;;;24.30;16.07;;;;;;;;;;5042596;28;20240;-55
2023/01/30 06:36:07;;;;;;;24.23;15.90;;;;;;;;;;5045904;28;20234;-55
2023/01/30 06:38:34;;;;;;;21.40;15.83;;;;;;;;;;5040644;28;20721;-55
2023/01/30 06:41:00;;;;;;;22.20;14.90;;;;;;;;;;5051339;28;20243;-56
2023/01/30 06:43:28;;;;;;;23.77;14.90;;;;;;;;;;5043757;28;20903;-56
2023/01/30 06:45:55;;;;;;;22.67;15.70;;;;;;;;;;5050848;28;20338;-56
2023/01/30 06:48:22;;;;;;;23.00;15.50;;;;;;;;;;5041467;28;20269;-56
2023/01/30 06:50:48;;;;;;;21.10;14.47;;;;;;;;;;5047447;28;20812;-55
2023/01/30 06:53:15;;;;;;;22.03;13.70;;;;;;;;;;5038813;28;20301;-56
2023/01/30 06:55:41;;;;;;;20.93;13.90;;;;;;;;;;5044345;28;20243;-55
2023/01/30 06:58:09;;;;;;;19.17;13.10;;;;;;;;;;5043215;28;20246;-56
2023/01/30 07:00:39;;;;;;;18.23;12.70;;;;;;;;;;5042326;28;20812;-56
2023/01/30 07:03:05;;;;;;;20.77;13.63;;;;;;;;;;5044542;28;20326;-55
2023/01/30 07:05:32;;;;;;;17.03;12.50;;;;;;;;;;5045066;28;20795;-58
2023/01/30 07:07:59;;;;;;;19.17;12.63;;;;;;;;;;5045820;28;20311;-57
2023/01/30 07:10:27;;;;;;;19.70;13.17;;;;;;;;;;5041532;28;20228;-56
2023/01/30 07:12:54;;;;;;;14.97;11.73;;;;;;;;;;5041832;28;20253;-56
2023/01/30 07:15:21;;;;;;;13.63;11.13;;;;;;;;;;5040991;28;20762;-54
2023/01/30 07:17:49;;;;;;;17.33;11.60;;;;;;;;;;5044337;28;20238;-54
2023/01/30 07:20:15;;;;;;;15.00;11.67;;;;;;;;;;5032245;28;20232;-55
2023/01/30 07:22:42;;;;;;;15.70;11.53;;;;;;;;;;5042554;28;20242;-54
2023/01/30 07:25:09;;;;;;;16.60;11.63;;;;;;;;;;5045986;28;20238;-55
2023/01/30 07:27:35;;;;;;;15.60;10.70;;;;;;;;;;5038052;28;20869;-55
2023/01/30 07:30:02;;;;;;;16.93;11.83;;;;;;;;;;5042204;28;20772;-55
2023/01/30 07:32:28;;;;;;;15.70;10.87;;;;;;;;;;5042197;28;20234;-54
2023/01/30 07:34:56;;;;;;;11.43;9.37;;;;;;;;;;5045174;28;20488;-54
2023/01/30 07:37:23;;;;;;;11.90;9.43;;;;;;;;;;5041269;28;20293;-54
2023/01/30 07:39:49;;;;;;;12.10;9.27;;;;;;;;;;5048151;28;20257;-55
2023/01/30 07:42:16;;;;;;;10.00;8.37;;;;;;;;;;5047242;28;20303;-55
2023/01/30 07:44:43;;;;;;;10.37;8.63;;;;;;;;;;5047330;28;20234;-53
2023/01/30 07:47:09;;;;;;;11.40;8.87;;;;;;;;;;5044462;28;20286;-51
2023/01/30 07:49:36;;;;;;;10.73;7.97;;;;;;;;;;5041505;28;20271;-52
2023/01/30 07:52:04;;;;;;;14.13;9.40;;;;;;;;;;5040275;28;20238;-53
2023/01/30 07:54:30;;;;;;;10.07;8.50;;;;;;;;;;5046068;28;20226;-53
2023/01/30 07:56:57;;;;;;;10.00;8.97;;;;;;;;;;5044607;28;20264;-53
2023/01/30 07:59:23;;;;;;;12.07;9.20;;;;;;;;;;5050091;28;20251;-57
2023/01/30 08:01:50;;;;;;;14.60;8.77;;;;;;;;;;5041400;28;20924;-53
2023/01/30 08:04:16;;;;;;;11.40;8.57;;;;;;;;;;5044096;28;20633;-52
2023/01/30 08:06:43;;;;;;;10.20;8.07;;;;;;;;;;5036201;28;20239;-53
2023/01/30 08:09:11;;;;;;;11.23;7.47;;;;;;;;;;5038571;28;20242;-52
2023/01/30 08:11:37;;;;;;;8.97;8.07;;;;;;;;;;5043962;28;20315;-52
2023/01/30 08:14:04;;;;;;;13.73;7.83;;;;;;;;;;5040012;28;20239;-52
2023/01/30 08:16:32;;;;;;;14.47;8.87;;;;;;;;;;5042909;28;20259;-52
2023/01/30 08:18:59;;;;;;;14.67;8.63;;;;;;;;;;5041567;28;20247;-54
2023/01/30 08:21:26;;;;;;;14.67;9.30;;;;;;;;;;5038860;28;20871;-52
2023/01/30 08:23:52;;;;;;;10.67;7.77;;;;;;;;;;5042535;28;20240;-54
2023/01/30 08:26:20;;;;;;;12.10;7.77;;;;;;;;;;5043786;28;20235;-52
2023/01/30 08:28:47;;;;;;;8.77;7.03;;;;;;;;;;5040682;28;20232;-54
2023/01/30 08:31:14;;;;;;;9.57;7.50;;;;;;;;;;5036162;28;20252;-53
2023/01/30 08:33:41;;;;;;;8.60;6.87;;;;;;;;;;5040958;28;20236;-53
2023/01/30 08:36:08;;;;;;;9.80;7.30;;;;;;;;;;5044288;28;20238;-53
2023/01/30 08:38:36;;;;;;;9.27;7.27;;;;;;;;;;5040792;28;20239;-51
2023/01/30 08:41:04;;;;;;;9.73;7.40;;;;;;;;;;5044080;28;20235;-52
2023/01/30 08:43:32;;;;;;;11.33;6.70;;;;;;;;;;5043488;28;20239;-53
2023/01/30 08:45:58;;;;;;;6.50;5.00;;;;;;;;;;5047134;28;20627;-52
2023/01/30 08:48:25;;;;;;;7.70;6.23;;;;;;;;;;5043068;28;20239;-54
2023/01/30 08:50:53;;;;;;;8.63;5.77;;;;;;;;;;5041024;28;20246;-52
2023/01/30 08:53:19;;;;;;;8.23;5.73;;;;;;;;;;5043961;28;20239;-52
2023/01/30 08:55:46;;;;;;;8.93;5.40;;;;;;;;;;5039503;28;20224;-53
2023/01/30 08:58:12;;;;;;;5.60;5.00;;;;;;;;;;5046864;28;20244;-53
2023/01/30 09:00:43;;;;;;;8.03;6.03;;;;;;;;;;5040453;28;20239;-52
2023/01/30 09:03:10;;;;;;;7.97;5.37;;;;;;;;;;5041422;28;20274;-53
2023/01/30 09:05:37;;;;;;;7.77;5.80;;;;;;;;;;5044658;28;20258;-54
2023/01/30 09:08:04;;;;;;;9.20;4.90;;;;;;;;;;5040605;28;20326;-52
2023/01/30 09:10:31;;;;;;;7.73;4.40;;;;;;;;;;5035137;28;20245;-53
2023/01/30 09:12:57;;;;;;;5.90;4.60;;;;;;;;;;5040681;28;20311;-52
2023/01/30 09:15:24;;;;;;;6.10;4.50;;;;;;;;;;5041569;28;20293;-53
2023/01/30 09:17:52;;;;;;;6.07;4.23;;;;;;;;;;5038507;28;20242;-54
2023/01/30 09:20:19;;;;;;;6.63;4.27;;;;;;;;;;5042352;28;20231;-52
2023/01/30 09:22:46;;;;;;;5.27;4.77;;;;;;;;;;5041177;28;20231;-53
2023/01/30 09:25:13;;;;;;;4.73;4.00;;;;;;;;;;5042418;28;20255;-53
2023/01/30 09:27:43;;;;;;;5.17;4.13;;;;;;;;;;5044862;28;20228;-53
2023/01/30 09:30:10;;;;;;;6.73;4.47;;;;;;;;;;5041523;28;20235;-53
2023/01/30 09:32:37;;;;;;;5.03;3.60;;;;;;;;;;5039147;28;20238;-53
2023/01/30 09:35:05;;;;;;;4.53;3.53;;;;;;;;;;5042169;28;20729;-53
2023/01/30 09:37:31;;;;;;;4.63;3.57;;;;;;;;;;5040414;28;20230;-55
2023/01/30 09:39:58;;;;;;;4.30;3.13;;;;;;;;;;5035701;28;20235;-54
2023/01/30 09:42:32;;;;;;;8.73;3.73;;;;;;;;;;5037133;28;20232;-55
2023/01/30 09:45:14;;;;;;;4.07;2.80;;;;;;;;;;5034240;28;20235;-55
2023/01/30 09:47:43;;;;;;;4.77;3.03;;;;;;;;;;5037382;28;20251;-54
2023/01/30 09:50:20;;;;;;;3.27;2.97;;;;;;;;;;5038330;28;20228;-55
2023/01/30 09:52:53;;;;;;;4.40;2.80;;;;;;;;;;5039725;28;20968;-54
2023/01/30 09:55:21;;;;;;;5.87;2.60;;;;;;;;;;5039777;28;20311;-55
2023/01/30 09:57:48;;;;;;;3.37;2.20;;;;;;;;;;5044301;28;20232;-54
2023/01/30 10:00:20;;;;;;;12.10;2.70;;;;;;;;;;5043058;28;20266;-56
2023/01/30 10:02:50;;;;;;;7.83;2.00;;;;;;;;;;5048398;28;20245;-55
2023/01/30 10:05:18;;;;;;;6.70;2.23;;;;;;;;;;5049335;28;20734;-56
2023/01/30 10:07:49;;;;;;;2.43;2.10;;;;;;;;;;5048545;28;21398;-54
2023/01/30 10:10:20;;;;;;;6.90;2.60;;;;;;;;;;5044912;28;20234;-55
2023/01/30 10:12:51;;;;;;;6.20;2.23;;;;;;;;;;5047468;28;20744;-55
2023/01/30 10:15:26;;;;;;;6.73;1.73;;;;;;;;;;5044789;28;20220;-55
2023/01/30 10:18:10;;;;;;;4.00;2.13;;;;;;;;;;5047508;28;20280;-54
2023/01/30 10:20:42;;;;;;;8.30;2.43;;;;;;;;;;5029492;28;20223;-54
2023/01/30 10:23:19;;;;;;;9.93;2.53;;;;;;;;;;5040228;28;20314;-54
2023/01/30 10:25:47;;;;;;;9.37;2.77;;;;;;;;;;5041338;28;20227;-55
2023/01/30 10:28:18;;;;;;;11.70;2.63;;;;;;;;;;5046901;28;20244;-54
2023/01/30 10:30:46;;;;;;;5.67;3.20;;;;;;;;;;5046763;28;20235;-53
2023/01/30 10:33:15;;;;;;;8.27;2.77;;;;;;;;;;5041902;28;20289;-55
2023/01/30 10:35:44;;;;;;;9.37;2.83;;;;;;;;;;5049802;28;20235;-54
2023/01/30 10:38:15;;;;;;;10.47;1.90;;;;;;;;;;5050418;28;20729;-54
2023/01/30 10:40:44;;;;;;;9.63;2.67;;;;;;;;;;5045486;28;20249;-54
2023/01/30 10:43:15;;;;;;;5.20;1.90;;;;;;;;;;5046969;28;20669;-54
2023/01/30 10:45:47;;;;;;;12.13;2.27;;;;;;;;;;5045377;28;20232;-54
2023/01/30 10:48:27;;;;;;;11.40;2.83;;;;;;;;;;5039129;28;20244;-54
2023/01/30 10:50:57;;;;;;;9.40;4.17;;;;;;;;;;5034679;28;20228;-54
2023/01/30 10:53:28;;;;;;;17.90;2.97;;;;;;;;;;5039869;28;20995;-53
2023/01/30 10:55:59;;;;;;;10.30;2.23;;;;;;;;;;5046090;28;20307;-54
2023/01/30 10:58:28;;;;;;;9.63;4.17;;;;;;;;;;5032350;28;20262;-54
2023/01/30 11:00:59;;;;;;;8.87;2.40;;;;;;;;;;5042042;28;20228;-55
2023/01/30 11:03:28;;;;;;;9.30;3.20;;;;;;;;;;5043067;28;20689;-53
2023/01/30 11:05:58;;;;;;;9.23;3.00;;;;;;;;;;5047167;28;20800;-58
2023/01/30 11:08:26;;;;;;;13.53;2.53;;;;;;;;;;5043641;28;20263;-54
2023/01/30 11:10:53;;;;;;;8.37;2.97;;;;;;;;;;5047132;28;20694;-54
2023/01/30 11:13:21;;;;;;;13.33;2.70;;;;;;;;;;5050517;28;20228;-53
2023/01/30 11:15:49;;;;;;;6.83;1.70;;;;;;;;;;5046408;28;20297;-53
2023/01/30 11:18:16;;;;;;;12.77;2.70;;;;;;;;;;5047638;28;20341;-53
2023/01/30 11:20:45;;;;;;;7.83;2.43;;;;;;;;;;5044875;28;20270;-53
2023/01/30 11:23:24;;;;;;;9.53;2.30;;;;;;;;;;5049184;28;20761;-55
2023/01/30 11:25:51;;;;;;;12.77;2.60;;;;;;;;;;5043564;28;20250;-54
2023/01/30 11:28:19;;;;;;;8.93;2.20;;;;;;;;;;5041735;28;20236;-54
2023/01/30 11:30:50;;;;;;;7.93;2.60;;;;;;;;;;5047733;28;20243;-54
2023/01/30 11:33:17;;;;;;;7.63;3.10;;;;;;;;;;5044750;28;20789;-53
2023/01/30 11:35:45;;;;;;;9.73;2.23;;;;;;;;;;5045523;28;20232;-53
2023/01/30 11:38:13;;;;;;;8.40;2.10;;;;;;;;;;5045410;28;20278;-53
2023/01/30 11:40:40;;;;;;;12.43;3.00;;;;;;;;;;5049131;28;20345;-54
2023/01/30 11:43:11;;;;;;;12.57;2.53;;;;;;;;;;5045039;28;20260;-53
2023/01/30 11:45:39;;;;;;;6.43;2.27;;;;;;;;;;5042336;28;20235;-55
2023/01/30 11:48:12;;;;;;;7.00;2.77;;;;;;;;;;5044415;28;20240;-53
2023/01/30 11:50:40;;;;;;;7.27;1.70;;;;;;;;;;5048133;28;20259;-54
2023/01/30 11:53:14;;;;;;;6.40;1.70;;;;;;;;;;5042693;28;20236;-57
2023/01/30 11:55:42;;;;;;;4.57;2.27;;;;;;;;;;5037481;28;20240;-53
2023/01/30 11:58:10;;;;;;;8.53;2.27;;;;;;;;;;5042542;28;20231;-53
2023/01/30 12:00:40;;;;;;;8.13;2.17;;;;;;;;;;5039948;28;20240;-56
2023/01/30 12:03:11;;;;;;;5.03;2.10;;;;;;;;;;5043579;28;20297;-55
2023/01/30 12:05:41;;;;;;;8.10;1.80;;;;;;;;;;5039614;28;20235;-52
2023/01/30 12:08:24;;;;;;;5.03;1.87;;;;;;;;;;5052401;28;20300;-53
2023/01/30 12:10:53;;;;;;;8.27;1.67;;;;;;;;;;5057516;28;20236;-53
2023/01/30 12:13:22;;;;;;;10.37;2.47;;;;;;;;;;5042326;28;20255;-55
2023/01/30 12:15:52;;;;;;;8.77;2.70;;;;;;;;;;5050518;28;20231;-52
2023/01/30 12:18:21;;;;;;;7.50;2.33;;;;;;;;;;5056395;28;20935;-52
2023/01/30 12:20:51;;;;;;;15.53;3.47;;;;;;;;;;5050907;28;20236;-52
2023/01/30 12:23:21;;;;;;;9.57;3.37;;;;;;;;;;5048494;28;20321;-52
2023/01/30 12:25:52;;;;;;;13.47;3.40;;;;;;;;;;5048984;28;20237;-51
2023/01/30 12:28:24;;;;;;;10.03;2.70;;;;;;;;;;5044313;28;20242;-52
2023/01/30 12:30:55;;;;;;;15.43;3.17;;;;;;;;;;5036713;28;20235;-52
2023/01/30 12:33:22;;;;;;;9.60;2.93;;;;;;;;;;5042858;28;20231;-54
2023/01/30 12:35:57;;;;;;;8.53;2.80;;;;;;;;;;5047369;28;20230;-52
2023/01/30 12:38:33;;;;;;;11.40;2.50;;;;;;;;;;5047544;28;20221;-53
2023/01/30 12:41:06;;;;;;;7.40;2.40;;;;;;;;;;5041604;28;20258;-54
2023/01/30 12:43:39;;;;;;;15.83;3.13;;;;;;;;;;5050644;28;20240;-54
2023/01/30 12:46:10;;;;;;;8.77;2.20;;;;;;;;;;5045369;28;20231;-56
2023/01/30 12:48:48;;;;;;;11.57;2.47;;;;;;;;;;5044106;28;20537;-55
2023/01/30 12:51:20;;;;;;;7.07;2.43;;;;;;;;;;5040778;28;20602;-56
2023/01/30 12:53:57;;;;;;;13.63;3.20;;;;;;;;;;5047627;28;20319;-56
2023/01/30 12:56:32;;;;;;;10.80;2.63;;;;;;;;;;5049164;28;20226;-55
2023/01/30 12:59:02;;;;;;;19.77;3.80;;;;;;;;;;5056718;28;20384;-57
2023/01/30 13:01:31;;;;;;;10.63;2.47;;;;;;;;;;5050320;28;20235;-55
2023/01/30 13:04:01;;;;;;;6.40;2.70;;;;;;;;;;5044915;28;20250;-55
2023/01/30 13:06:50;;;;;;;16.57;3.37;;;;;;;;;;5050756;28;20323;-55
2023/01/30 13:09:24;;;;;;;11.23;2.60;;;;;;;;;;5047808;28;20703;-54
2023/01/30 13:11:55;;;;;;;14.40;2.27;;;;;;;;;;5050894;28;20604;-55
2023/01/30 13:14:27;;;;;;;7.77;1.97;;;;;;;;;;5045029;28;20306;-56
2023/01/30 13:17:03;;;;;;;8.93;2.00;;;;;;;;;;5051594;28;20308;-53
2023/01/30 13:19:33;;;;;;;3.73;1.80;;;;;;;;;;5039805;28;20299;-54
2023/01/30 13:22:03;;;;;;;6.13;1.67;;;;;;;;;;5043488;28;20824;-53
2023/01/30 13:24:34;;;;;;;4.60;1.53;;;;;;;;;;5049512;28;20333;-54
2023/01/30 13:27:02;;;;;;;5.40;1.83;;;;;;;;;;5050623;28;20261;-54
2023/01/30 13:29:31;;;;;;;6.10;1.53;;;;;;;;;;5043709;28;20243;-53
2023/01/30 13:32:00;;;;;;;8.60;2.50;;;;;;;;;;5051082;28;20242;-55
2023/01/30 13:34:29;;;;;;;6.87;2.40;;;;;;;;;;5048992;28;20270;-53
2023/01/30 13:36:59;;;;;;;8.53;2.27;;;;;;;;;;5060847;28;20232;-53
2023/01/30 13:39:30;;;;;;;8.47;2.13;;;;;;;;;;5047976;28;20295;-53
2023/01/30 13:41:58;;;;;;;5.03;2.30;;;;;;;;;;5053718;28;20242;-55
2023/01/30 13:44:27;;;;;;;11.23;2.77;;;;;;;;;;5048662;28;20231;-57
2023/01/30 13:46:56;;;;;;;13.83;2.43;;;;;;;;;;5041489;28;20252;-54
2023/01/30 13:49:25;;;;;;;6.30;2.50;;;;;;;;;;5043937;28;20241;-54
2023/01/30 13:51:54;;;;;;;7.20;2.03;;;;;;;;;;5043590;28;20323;-53
2023/01/30 13:54:29;;;;;;;7.30;2.00;;;;;;;;;;5041396;28;20337;-52
2023/01/30 13:56:58;;;;;;;10.17;2.27;;;;;;;;;;5041143;28;20303;-54
2023/01/30 13:59:30;;;;;;;16.77;2.23;;;;;;;;;;5046510;28;20235;-53
2023/01/30 14:02:16;;;;;;;8.30;3.10;;;;;;;;;;5039683;28;20730;-55
2023/01/30 14:04:44;;;;;;;6.97;1.87;;;;;;;;;;5040845;28;20254;-53
2023/01/30 14:07:13;;;;;;;5.70;1.90;;;;;;;;;;5044883;28;20262;-54
2023/01/30 14:09:41;;;;;;;2.90;1.30;;;;;;;;;;5052193;28;20236;-54
2023/01/30 14:12:17;;;;;;;2.57;1.63;;;;;;;;;;5045146;28;20314;-55
2023/01/30 14:14:56;;;;;;;5.00;1.30;;;;;;;;;;5048803;28;20322;-54
2023/01/30 14:17:23;;;;;;;5.67;1.83;;;;;;;;;;5052988;28;20260;-54
2023/01/30 14:19:58;;;;;;;9.37;1.87;;;;;;;;;;5045169;28;20234;-54
2023/01/30 14:22:26;;;;;;;10.40;2.17;;;;;;;;;;5043221;28;20233;-53
2023/01/30 14:25:11;;;;;;;3.60;1.40;;;;;;;;;;5046369;28;20230;-54
2023/01/30 14:27:37;;;;;;;8.63;2.10;;;;;;;;;;5048360;28;20314;-53
2023/01/30 14:30:27;;;;;;;6.67;1.37;;;;;;;;;;5040003;28;20238;-53
2023/01/30 14:32:56;;;;;;;6.83;1.30;;;;;;;;;;5041557;28;20239;-52
2023/01/30 14:35:25;;;;;;;3.23;1.10;;;;;;;;;;5056892;28;20234;-56
2023/01/30 14:38:03;;;;;;;0.40;0.40;;;;;;;;;;5048418;28;20235;-52
2023/01/30 14:40:37;;;;;;;1.10;0.50;;;;;;;;;;5058017;28;20308;-53
2023/01/30 14:43:22;;;;;;;3.70;1.30;;;;;;;;;;5046161;28;20267;-53